Time;durP1;ratioP1;P1;durP2;ratioP2;P2;SDS_P1;SDS_P2;PMS_P1;PMS_P2;Temp;Humidity;BMP_temperature;BMP_pressure;BME280_temperature;BME280_humidity;BME280_pressure;Samples;Min_cycle;Max_cycle;Signal;HPM_P1;HPM_P2
2023/05/22 00:01:18;;;;;;;;;;;21.90;86.00;;;;;;5058956;28;19973;-82
2023/05/22 00:03:44;;;;;;;;;;;21.90;86.00;;;;;;5057168;28;19994;-82
2023/05/22 00:06:10;;;;;;;;;;;21.90;86.10;;;;;;5074649;28;20402;-82
2023/05/22 00:08:36;;;;;;;;;;;21.90;86.10;;;;;;5074333;28;20010;-82
2023/05/22 00:11:02;;;;;;;;;;;21.90;86.10;;;;;;5056260;28;20099;-82
2023/05/22 00:13:28;;;;;;;;;;;21.90;86.10;;;;;;5075237;28;20015;-82
2023/05/22 00:15:53;;;;;;;;;;;21.90;86.10;;;;;;5092337;28;19909;-82
2023/05/22 00:18:19;;;;;;;;;;;21.90;86.80;;;;;;5075662;28;20274;-82
2023/05/22 00:20:45;;;;;;;;;;;21.90;86.10;;;;;;5075079;28;19908;-82
2023/05/22 00:23:11;;;;;;;;;;;21.90;86.20;;;;;;5057903;28;19915;-82
2023/05/22 00:25:37;;;;;;;;;;;21.90;86.20;;;;;;5057956;28;19908;-82
2023/05/22 00:28:03;;;;;;;;;;;21.90;86.20;;;;;;5058573;28;20309;-82
2023/05/22 00:30:29;;;;;;;;;;;21.80;86.10;;;;;;5058759;28;19912;-82
2023/05/22 00:32:55;;;;;;;;;;;21.90;86.30;;;;;;5058907;28;19908;-82
2023/05/22 00:35:21;;;;;;;;;;;21.80;86.10;;;;;;5077316;28;19908;-82
2023/05/22 00:37:46;;;;;;;;;;;21.80;86.10;;;;;;5075930;28;19973;-82
2023/05/22 00:40:12;;;;;;;;;;;21.80;86.20;;;;;;5055416;28;19912;-82
2023/05/22 00:42:38;;;;;;;;;;;21.80;86.20;;;;;;5072781;28;19909;-82
2023/05/22 00:45:05;;;;;;;;;;;21.80;86.30;;;;;;5055424;28;20172;-82
2023/05/22 00:47:31;;;;;;;;;;;21.80;86.20;;;;;;5055362;28;19908;-82
2023/05/22 00:49:57;;;;;;;;;;;21.80;86.30;;;;;;5073784;28;19919;-82
2023/05/22 00:52:22;;;;;;;;;;;21.80;86.30;;;;;;5055220;28;19908;-82
2023/05/22 00:54:49;;;;;;;;;;;21.80;86.30;;;;;;5055178;28;19909;-82
2023/05/22 00:57:15;;;;;;;;;;;21.70;86.30;;;;;;5054175;28;19908;-83
2023/05/22 00:59:41;;;;;;;;;;;21.70;86.30;;;;;;5089279;28;19916;-82
2023/05/22 01:02:07;;;;;;;;;;;21.70;86.30;;;;;;5074651;28;19914;-82
2023/05/22 01:04:34;;;;;;;;;;;21.70;86.40;;;;;;5074822;28;19920;-82
2023/05/22 01:07:01;;;;;;;;;;;21.70;86.30;;;;;;5074714;28;19909;-82
2023/05/22 01:09:27;;;;;;;;;;;21.70;86.40;;;;;;5075326;28;20236;-82
2023/05/22 01:12:13;;;;;;;;;;;21.70;86.40;;;;;;5058846;28;19915;-82
2023/05/22 01:14:58;;;;;;;;;;;21.70;86.40;;;;;;5092299;28;19933;-82
2023/05/22 01:17:33;;;;;;;;;;;21.70;86.40;;;;;;5092870;28;19931;-82
2023/05/22 01:20:06;;;;;;;;;;;21.70;86.40;;;;;;5075581;28;19915;-82
2023/05/22 01:23:01;;;;;;;;;;;21.70;86.40;;;;;;5090128;28;20001;-82
2023/05/22 01:25:33;;;;;;;;;;;21.60;86.40;;;;;;5074740;28;19997;-82
2023/05/22 01:27:58;;;;;;;;;;;21.60;86.40;;;;;;5075237;28;20225;-82
2023/05/22 01:30:43;;;;;;;;;;;21.60;86.40;;;;;;5089633;28;20439;-82
2023/05/22 01:33:11;;;;;;;;;;;21.60;86.40;;;;;;5090389;28;19908;-82
2023/05/22 01:35:38;;;;;;;;;;;21.60;86.40;;;;;;5056227;28;19921;-82
2023/05/22 01:38:05;;;;;;;;;;;21.60;86.40;;;;;;5056270;28;19916;-82
2023/05/22 01:40:31;;;;;;;;;;;21.60;86.40;;;;;;5073655;28;20011;-82
2023/05/22 01:42:57;;;;;;;;;;;21.60;86.50;;;;;;5056103;28;19909;-82
2023/05/22 01:45:22;;;;;;;;;;;21.60;86.50;;;;;;5056339;28;19909;-82
2023/05/22 01:47:48;;;;;;;;;;;21.50;86.40;;;;;;5073516;28;19924;-82
2023/05/22 01:50:14;;;;;;;;;;;21.50;86.40;;;;;;5057451;28;19916;-82
2023/05/22 01:52:40;;;;;;;;;;;21.50;86.40;;;;;;5058315;28;20294;-82
2023/05/22 01:55:16;;;;;;;;;;;21.50;86.40;;;;;;5092168;28;19908;-82
2023/05/22 01:57:45;;;;;;;;;;;21.50;86.50;;;;;;5082299;28;19916;-82
2023/05/22 02:00:12;;;;;;;;;;;21.50;86.40;;;;;;5058067;28;19916;-82
2023/05/22 02:02:41;;;;;;;;;;;21.50;86.50;;;;;;5091480;28;19913;-82
2023/05/22 02:05:08;;;;;;;;;;;21.50;86.50;;;;;;5058202;28;19940;-82
2023/05/22 02:07:36;;;;;;;;;;;21.50;86.50;;;;;;5057338;28;19908;-82
2023/05/22 02:10:02;;;;;;;;;;;21.50;86.50;;;;;;5061507;28;19916;-82
2023/05/22 02:12:27;;;;;;;;;;;21.50;86.50;;;;;;5062596;28;19919;-82
2023/05/22 02:14:53;;;;;;;;;;;21.50;86.50;;;;;;5062090;28;19919;-82
2023/05/22 02:17:20;;;;;;;;;;;21.50;86.50;;;;;;5062606;28;20003;-82
2023/05/22 02:19:46;;;;;;;;;;;21.40;86.40;;;;;;5096284;28;19995;-82
2023/05/22 02:22:14;;;;;;;;;;;21.40;86.40;;;;;;5062095;28;20345;-82
2023/05/22 02:24:41;;;;;;;;;;;21.40;86.40;;;;;;5096164;28;19947;-82
2023/05/22 02:27:08;;;;;;;;;;;21.40;86.40;;;;;;5062370;28;19913;-82
2023/05/22 02:29:34;;;;;;;;;;;21.40;86.50;;;;;;5061814;28;20173;-82
2023/05/22 02:31:59;;;;;;;;;;;21.40;86.50;;;;;;5062435;28;20081;-82
2023/05/22 02:34:25;;;;;;;;;;;21.40;86.50;;;;;;5062029;28;20236;-82
2023/05/22 02:36:51;;;;;;;;;;;21.40;86.50;;;;;;5095149;28;20103;-82
2023/05/22 02:39:17;;;;;;;;;;;21.40;86.50;;;;;;5095852;28;19969;-82
2023/05/22 02:41:43;;;;;;;;;;;21.40;86.40;;;;;;5079744;28;19954;-82
2023/05/22 02:44:08;;;;;;;;;;;21.40;86.40;;;;;;5061243;28;20016;-82
2023/05/22 02:46:34;;;;;;;;;;;21.40;86.40;;;;;;5077343;28;19932;-82
2023/05/22 02:49:00;;;;;;;;;;;21.40;86.40;;;;;;5060564;28;19977;-82
2023/05/22 02:51:25;;;;;;;;;;;21.30;86.40;;;;;;5060303;28;19917;-82
2023/05/22 02:53:51;;;;;;;;;;;21.30;86.40;;;;;;5077588;28;19909;-82
2023/05/22 02:56:17;;;;;;;;;;;21.30;86.30;;;;;;5059181;28;19909;-82
2023/05/22 02:58:43;;;;;;;;;;;21.30;86.30;;;;;;5059671;28;20179;-82
2023/05/22 03:01:09;;;;;;;;;;;21.30;86.30;;;;;;5059558;28;20006;-82
2023/05/22 03:03:35;;;;;;;;;;;21.30;86.30;;;;;;5060465;28;19912;-82
2023/05/22 03:06:02;;;;;;;;;;;21.30;86.30;;;;;;5059676;28;19920;-82
2023/05/22 03:08:28;;;;;;;;;;;21.30;86.30;;;;;;5060735;28;20003;-82
2023/05/22 03:10:55;;;;;;;;;;;21.30;86.30;;;;;;5060684;28;20019;-82
2023/05/22 03:13:20;;;;;;;;;;;21.30;86.90;;;;;;5077290;28;19921;-82
2023/05/22 03:15:46;;;;;;;;;;;21.20;86.20;;;;;;5060400;28;19965;-82
2023/05/22 03:18:12;;;;;;;;;;;21.30;86.20;;;;;;5091440;28;19923;-82
2023/05/22 03:20:37;;;;;;;;;;;21.20;86.20;;;;;;5076127;28;19962;-82
2023/05/22 03:23:04;;;;;;;;;;;21.20;86.20;;;;;;5058303;28;19999;-82
2023/05/22 03:25:29;;;;;;;;;;;21.20;86.10;;;;;;5057423;28;20112;-82
2023/05/22 03:27:55;;;;;;;;;;;21.20;86.20;;;;;;5090420;28;20067;-82
2023/05/22 03:30:20;;;;;;;;;;;21.20;86.20;;;;;;5076308;28;19974;-82
2023/05/22 03:32:46;;;;;;;;;;;21.20;86.10;;;;;;5092140;28;20168;-82
2023/05/22 03:35:14;;;;;;;;;;;21.20;86.10;;;;;;5075601;28;19919;-82
2023/05/22 03:37:40;;;;;;;;;;;21.20;86.10;;;;;;5058504;28;19952;-81
2023/05/22 03:40:05;;;;;;;;;;;21.20;86.10;;;;;;5059541;28;19958;-82
2023/05/22 03:42:31;;;;;;;;;;;21.20;86.10;;;;;;5059027;28;19971;-82
2023/05/22 03:44:57;;;;;;;;;;;21.20;86.10;;;;;;5091698;28;19908;-82
2023/05/22 03:47:22;;;;;;;;;;;21.20;86.10;;;;;;5076273;28;20202;-82
2023/05/22 03:49:48;;;;;;;;;;;21.20;86.10;;;;;;5075298;28;19935;-82
2023/05/22 03:52:13;;;;;;;;;;;21.20;86.00;;;;;;5057691;28;19969;-82
2023/05/22 03:54:39;;;;;;;;;;;21.20;86.00;;;;;;5058621;28;20270;-82
2023/05/22 03:57:04;;;;;;;;;;;21.20;86.00;;;;;;5091837;28;20046;-82
2023/05/22 03:59:30;;;;;;;;;;;21.10;85.90;;;;;;5089706;28;20015;-82
2023/05/22 04:01:56;;;;;;;;;;;21.10;85.90;;;;;;5056889;28;19920;-82
2023/05/22 04:04:25;;;;;;;;;;;21.10;85.80;;;;;;5056156;28;20209;-82
2023/05/22 04:06:51;;;;;;;;;;;21.10;85.80;;;;;;5055566;28;19915;-82
2023/05/22 04:09:17;;;;;;;;;;;21.10;86.40;;;;;;5055710;28;20062;-82
2023/05/22 04:11:43;;;;;;;;;;;21.10;85.70;;;;;;5057090;28;19992;-82
2023/05/22 04:14:09;;;;;;;;;;;21.10;85.70;;;;;;5073347;28;20258;-82
2023/05/22 04:16:34;;;;;;;;;;;21.10;85.60;;;;;;5055395;28;19908;-82
2023/05/22 04:19:01;;;;;;;;;;;21.10;85.60;;;;;;5054096;28;19913;-82
2023/05/22 04:21:27;;;;;;;;;;;21.10;85.50;;;;;;5052975;28;19955;-82
2023/05/22 04:23:53;;;;;;;;;;;21.10;85.50;;;;;;5053190;28;19969;-82
2023/05/22 04:26:19;;;;;;;;;;;21.10;85.40;;;;;;5054177;28;20237;-82
2023/05/22 04:28:45;;;;;;;;;;;21.10;85.30;;;;;;5072169;28;19912;-82
2023/05/22 04:31:11;;;;;;;;;;;21.10;85.30;;;;;;5070037;28;19909;-82
2023/05/22 04:33:37;;;;;;;;;;;21.10;85.30;;;;;;5051293;28;19935;-82
2023/05/22 04:36:03;;;;;;;;;;;21.10;85.20;;;;;;5070321;28;20210;-82
2023/05/22 04:38:29;;;;;;;;;;;21.10;85.10;;;;;;5087479;28;19982;-82
2023/05/22 04:40:57;;;;;;;;;;;21.10;85.00;;;;;;5055822;28;20259;-82
2023/05/22 04:43:25;;;;;;;;;;;21.10;84.90;;;;;;5053649;28;19909;-82
2023/05/22 04:45:51;;;;;;;;;;;21.10;84.80;;;;;;5056214;28;19934;-82
2023/05/22 04:48:16;;;;;;;;;;;21.20;84.80;;;;;;5056883;28;19909;-82
2023/05/22 04:50:45;;;;;;;;;;;21.20;84.70;;;;;;5054636;28;19971;-82
2023/05/22 04:53:11;;;;;;;;;;;21.20;84.60;;;;;;5087190;28;19908;-82
2023/05/22 04:55:37;;;;;;;;;;;21.20;84.50;;;;;;5053109;28;19920;-82
2023/05/22 04:58:02;;;;;;;;;;;21.20;84.40;;;;;;5053653;28;20153;-82
2023/05/22 05:00:28;;;;;;;;;;;21.20;84.30;;;;;;5088776;28;20178;-82
2023/05/22 05:02:54;;;;;;;;;;;21.20;84.20;;;;;;5052306;28;19990;-82
2023/05/22 05:05:20;;;;;;;;;;;21.20;84.00;;;;;;5073138;28;19909;-82
2023/05/22 05:07:47;;;;;;;;;;;21.20;83.90;;;;;;5095406;28;19982;-82
2023/05/22 05:10:12;;;;;;;;;;;21.20;84.40;;;;;;5049162;28;19963;-82
2023/05/22 05:12:38;;;;;;;;;;;21.20;83.70;;;;;;5047586;28;19949;-82
2023/05/22 05:15:04;;;;;;;;;;;21.20;83.50;;;;;;5047339;28;19916;-82
2023/05/22 05:17:29;;;;;;;;;;;21.30;83.50;;;;;;5047967;28;20065;-82
2023/05/22 05:19:55;;;;;;;;;;;21.30;83.30;;;;;;5047426;28;19916;-82
2023/05/22 05:22:20;;;;;;;;;;;21.30;83.20;;;;;;5080720;28;20033;-82
2023/05/22 05:24:46;;;;;;;;;;;21.30;83.10;;;;;;5046414;28;19908;-82
2023/05/22 05:27:12;;;;;;;;;;;21.30;82.90;;;;;;5063616;28;19970;-82
2023/05/22 05:29:37;;;;;;;;;;;21.30;82.80;;;;;;5044434;28;20057;-82
2023/05/22 05:32:03;;;;;;;;;;;21.40;82.80;;;;;;5045239;28;20320;-82
2023/05/22 05:34:29;;;;;;;;;;;21.40;82.70;;;;;;5045090;28;19909;-82
2023/05/22 05:36:56;;;;;;;;;;;21.40;82.70;;;;;;5061704;28;19916;-82
2023/05/22 05:39:21;;;;;;;;;;;21.40;82.60;;;;;;5045760;28;20209;-83
2023/05/22 05:41:47;;;;;;;;;;;21.50;82.60;;;;;;5050220;28;20266;-82
2023/05/22 05:44:13;;;;;;;;;;;21.40;82.50;;;;;;5050647;28;19920;-82
2023/05/22 05:46:38;;;;;;;;;;;21.50;82.50;;;;;;5054067;28;19912;-82
2023/05/22 05:49:08;;;;;;;;;;;21.50;82.40;;;;;;5054077;28;20165;-82
2023/05/22 05:51:35;;;;;;;;;;;21.50;82.10;;;;;;5050401;28;19908;-82
2023/05/22 05:54:00;;;;;;;;;;;21.60;82.10;;;;;;5052076;28;19973;-82
2023/05/22 05:56:26;;;;;;;;;;;21.60;82.00;;;;;;5053526;28;19958;-82
2023/05/22 05:58:51;;;;;;;;;;;21.60;81.80;;;;;;5069111;28;19920;-82
2023/05/22 06:01:17;;;;;;;;;;;21.70;81.80;;;;;;5054674;28;19993;-82
2023/05/22 06:03:43;;;;;;;;;;;21.70;81.50;;;;;;5072749;28;19912;-82
2023/05/22 06:06:09;;;;;;;;;;;21.70;81.30;;;;;;5073250;28;20277;-82
2023/05/22 06:08:35;;;;;;;;;;;21.70;81.30;;;;;;5055405;28;20077;-82
2023/05/22 06:11:01;;;;;;;;;;;21.80;81.10;;;;;;5054914;28;20015;-82
2023/05/22 06:13:26;;;;;;;;;;;21.80;81.10;;;;;;5086569;28;20262;-82
2023/05/22 06:15:52;;;;;;;;;;;21.80;81.00;;;;;;5051223;28;19908;-82
2023/05/22 06:18:20;;;;;;;;;;;21.80;80.80;;;;;;5054032;28;19920;-82
2023/05/22 06:20:45;;;;;;;;;;;21.90;80.60;;;;;;5070112;28;19908;-82
2023/05/22 06:23:11;;;;;;;;;;;22.00;80.20;;;;;;5053054;28;20137;-82
2023/05/22 06:25:38;;;;;;;;;;;22.10;79.50;;;;;;5052133;28;20205;-82
2023/05/22 06:28:05;;;;;;;;;;;22.20;78.70;;;;;;5071481;28;19923;-82
2023/05/22 06:30:30;;;;;;;;;;;22.40;78.10;;;;;;5070920;28;19993;-82
2023/05/22 06:32:56;;;;;;;;;;;22.60;77.30;;;;;;5052564;28;19909;-84
2023/05/22 06:35:21;;;;;;;;;;;22.70;76.80;;;;;;5049690;28;19909;-83
2023/05/22 06:37:47;;;;;;;;;;;22.80;75.90;;;;;;5073983;28;19944;-83
2023/05/22 06:40:13;;;;;;;;;;;22.90;75.30;;;;;;5054485;28;20042;-82
2023/05/22 06:42:38;;;;;;;;;;;23.10;74.80;;;;;;5070619;28;19980;-83
2023/05/22 06:45:05;;;;;;;;;;;23.20;74.60;;;;;;5086528;28;20182;-83
2023/05/22 06:47:30;;;;;;;;;;;23.30;74.20;;;;;;5071734;28;19909;-82
2023/05/22 06:49:56;;;;;;;;;;;23.50;73.60;;;;;;5053708;28;19943;-82
2023/05/22 06:52:22;;;;;;;;;;;23.70;72.10;;;;;;5070573;28;19971;-83
2023/05/22 06:54:48;;;;;;;;;;;23.90;71.30;;;;;;5052552;28;19909;-82
2023/05/22 06:57:13;;;;;;;;;;;24.00;70.10;;;;;;5069711;28;20066;-83
2023/05/22 06:59:39;;;;;;;;;;;24.00;69.70;;;;;;5053309;28;20062;-83
2023/05/22 07:02:04;;;;;;;;;;;24.00;69.60;;;;;;5052242;28;19908;-83
2023/05/22 07:04:30;;;;;;;;;;;24.10;69.20;;;;;;5051530;28;20217;-83
2023/05/22 07:06:55;;;;;;;;;;;24.30;68.30;;;;;;5086195;28;20429;-84
2023/05/22 07:09:21;;;;;;;;;;;24.60;67.30;;;;;;5069123;28;20031;-83
2023/05/22 07:11:47;;;;;;;;;;;24.90;66.00;;;;;;5054483;28;19912;-83
2023/05/22 07:14:12;;;;;;;;;;;25.10;64.90;;;;;;5074790;28;20398;-83
2023/05/22 07:16:39;;;;;;;;;;;25.40;63.70;;;;;;5086654;28;19909;-83
2023/05/22 07:19:07;;;;;;;;;;;25.60;62.70;;;;;;5068348;28;19912;-83
2023/05/22 07:21:36;;;;;;;;;;;26.00;61.40;;;;;;5066085;28;19916;-83
2023/05/22 07:24:06;;;;;;;;;;;26.20;60.40;;;;;;5066398;28;19912;-83
2023/05/22 07:26:35;;;;;;;;;;;26.20;59.90;;;;;;5065509;28;19917;-83
2023/05/22 07:29:01;;;;;;;;;;;26.30;59.70;;;;;;5066492;28;20103;-83
2023/05/22 07:31:27;;;;;;;;;;;26.50;59.50;;;;;;5061883;28;20526;-83
2023/05/22 07:33:52;;;;;;;;;;;26.60;59.40;;;;;;5068563;28;19912;-83
2023/05/22 07:36:19;;;;;;;;;;;26.90;58.70;;;;;;5070692;28;19904;-83
2023/05/22 07:38:45;;;;;;;;;;;27.10;58.30;;;;;;5068980;28;19977;-83
2023/05/22 07:41:10;;;;;;;;;;;27.20;57.70;;;;;;5087385;28;19923;-83
2023/05/22 07:43:36;;;;;;;;;;;27.20;57.60;;;;;;5084217;28;20090;-84
2023/05/22 07:46:02;;;;;;;;;;;27.30;57.50;;;;;;5063996;28;20007;-83
2023/05/22 07:48:27;;;;;;;;;;;27.40;57.30;;;;;;5061896;28;19916;-83
2023/05/22 07:50:53;;;;;;;;;;;27.60;57.00;;;;;;5084529;28;20194;-83
2023/05/22 07:53:18;;;;;;;;;;;28.00;56.70;;;;;;5066090;28;20126;-83
2023/05/22 07:55:44;;;;;;;;;;;28.30;56.20;;;;;;5064982;28;20040;-83
2023/05/22 07:58:10;;;;;;;;;;;28.60;55.70;;;;;;5083399;28;19912;-83
2023/05/22 08:00:35;;;;;;;;;;;28.80;55.30;;;;;;5084105;28;19916;-83
2023/05/22 08:03:01;;;;;;;;;;;29.00;55.00;;;;;;5085130;28;19965;-83
2023/05/22 08:05:27;;;;;;;;;;;29.10;54.60;;;;;;5082982;28;19955;-84
2023/05/22 08:07:52;;;;;;;;;;;29.30;54.30;;;;;;5089162;28;19912;-82
2023/05/22 08:10:18;;;;;;;;;;;29.60;54.00;;;;;;5071320;28;19963;-81
2023/05/22 08:12:44;;;;;;;;;;;29.70;53.70;;;;;;5067196;28;19916;-81
2023/05/22 08:15:10;;;;;;;;;;;29.90;53.50;;;;;;5083649;28;19981;-81
2023/05/22 08:17:35;;;;;;;;;;;30.10;53.20;;;;;;5067179;28;19916;-82
2023/05/22 08:20:01;;;;;;;;;;;30.40;53.00;;;;;;5069808;28;19943;-81
2023/05/22 08:22:28;;;;;;;;;;;30.60;52.60;;;;;;5074584;28;20008;-81
2023/05/22 08:24:54;;;;;;;;;;;30.70;52.30;;;;;;5091366;28;19908;-81
2023/05/22 08:27:20;;;;;;;;;;;30.30;52.20;;;;;;5089328;28;20059;-81
2023/05/22 08:29:48;;;;;;;;;;;30.30;52.40;;;;;;5071252;28;20292;-81
2023/05/22 08:32:13;;;;;;;;;;;30.40;52.50;;;;;;5070201;28;19955;-81
2023/05/22 08:34:44;;;;;;;;;;;30.60;52.30;;;;;;5069728;28;20222;-81
2023/05/22 08:37:11;;;;;;;;;;;30.70;52.10;;;;;;5087856;28;20003;-80
2023/05/22 08:39:37;;;;;;;;;;;30.60;52.00;;;;;;5067843;28;19917;-81
2023/05/22 08:42:03;;;;;;;;;;;30.50;52.00;;;;;;5068777;28;19939;-81
2023/05/22 08:44:29;;;;;;;;;;;30.70;52.10;;;;;;5070556;28;19912;-82
2023/05/22 08:46:58;;;;;;;;;;;30.90;51.80;;;;;;5065540;28;19965;-81
2023/05/22 08:49:25;;;;;;;;;;;31.20;51.50;;;;;;5083902;28;20198;-81
2023/05/22 08:51:55;;;;;;;;;;;31.50;51.40;;;;;;5084865;28;20130;-81
2023/05/22 08:54:22;;;;;;;;;;;31.60;51.20;;;;;;5086718;28;19959;-81
2023/05/22 08:56:48;;;;;;;;;;;31.70;51.00;;;;;;5067555;28;19912;-81
2023/05/22 08:59:14;;;;;;;;;;;31.80;50.80;;;;;;5068568;28;19977;-81
2023/05/22 09:01:40;;;;;;;;;;;31.90;50.70;;;;;;5069116;28;19954;-82
2023/05/22 09:04:05;;;;;;;;;;;32.00;50.70;;;;;;5064211;28;19951;-82
2023/05/22 09:06:31;;;;;;;;;;;31.80;50.80;;;;;;5069836;28;19912;-81
2023/05/22 09:09:00;;;;;;;;;;;31.90;50.70;;;;;;5074925;28;20274;-81
2023/05/22 09:11:25;;;;;;;;;;;32.00;50.60;;;;;;5088896;28;20272;-83
2023/05/22 09:13:51;;;;;;;;;;;32.00;50.50;;;;;;5065084;28;19924;-81
2023/05/22 09:16:17;;;;;;;;;;;32.10;50.50;;;;;;5063048;28;19966;-83
2023/05/22 09:18:43;;;;;;;;;;;32.10;50.40;;;;;;5083501;28;19912;-83
2023/05/22 09:21:18;;;;;;;;;;;31.80;50.50;;;;;;5071357;28;19916;-83
2023/05/22 09:23:48;;;;;;;;;;;31.80;50.80;;;;;;5067975;28;19916;-83
2023/05/22 09:26:13;;;;;;;;;;;31.90;50.70;;;;;;5067551;28;20232;-83
2023/05/22 09:28:39;;;;;;;;;;;31.90;50.70;;;;;;5073289;28;19923;-83
2023/05/22 09:31:05;;;;;;;;;;;31.80;50.60;;;;;;5095768;28;19965;-83
2023/05/22 09:33:31;;;;;;;;;;;31.20;50.90;;;;;;5073119;28;19908;-83
2023/05/22 09:35:56;;;;;;;;;;;31.20;51.20;;;;;;5073115;28;19947;-82
2023/05/22 09:38:25;;;;;;;;;;;30.80;51.40;;;;;;5068683;28;20138;-82
2023/05/22 09:40:53;;;;;;;;;;;30.40;51.90;;;;;;5066378;28;20202;-82
2023/05/22 09:43:18;;;;;;;;;;;30.30;52.20;;;;;;5050466;28;20225;-82
2023/05/22 09:45:44;;;;;;;;;;;30.10;52.40;;;;;;5069703;28;20320;-83
2023/05/22 09:48:11;;;;;;;;;;;30.00;52.50;;;;;;5068628;28;19916;-83
2023/05/22 09:50:38;;;;;;;;;;;29.90;52.70;;;;;;5053044;28;19924;-82
2023/05/22 09:53:04;;;;;;;;;;;29.80;52.90;;;;;;5052367;28;20120;-83
2023/05/22 09:55:30;;;;;;;;;;;29.70;53.20;;;;;;5068171;28;19917;-82
2023/05/22 09:57:57;;;;;;;;;;;29.60;53.20;;;;;;5070049;28;20290;-82
2023/05/22 10:00:23;;;;;;;;;;;29.50;53.70;;;;;;5050735;28;19918;-83
2023/05/22 10:02:57;;;;;;;;;;;29.40;53.70;;;;;;5069274;28;20090;-82
2023/05/22 10:05:27;;;;;;;;;;;29.40;53.70;;;;;;5070804;28;20282;-82
2023/05/22 10:07:54;;;;;;;;;;;29.30;54.00;;;;;;5051434;28;20225;-83
2023/05/22 10:10:23;;;;;;;;;;;29.30;54.10;;;;;;5051903;28;19912;-82
2023/05/22 10:12:56;;;;;;;;;;;29.20;54.30;;;;;;5051558;28;20332;-84
2023/05/22 10:15:22;;;;;;;;;;;29.20;54.40;;;;;;5067699;28;20011;-83
2023/05/22 10:17:48;;;;;;;;;;;29.10;54.60;;;;;;5051131;28;19952;-82
2023/05/22 10:20:17;;;;;;;;;;;29.10;54.60;;;;;;5068616;28;19920;-83
2023/05/22 10:22:45;;;;;;;;;;;29.10;54.80;;;;;;5050351;28;20154;-83
2023/05/22 10:25:11;;;;;;;;;;;29.10;55.10;;;;;;5050442;28;19916;-83
2023/05/22 10:27:37;;;;;;;;;;;29.00;55.60;;;;;;5082940;28;20157;-82
2023/05/22 10:30:11;;;;;;;;;;;29.00;56.40;;;;;;5049018;28;20209;-83
2023/05/22 10:32:37;;;;;;;;;;;29.00;56.00;;;;;;5068276;28;19909;-82
2023/05/22 10:35:29;;;;;;;;;;;28.90;56.00;;;;;;5080361;28;20054;-82
2023/05/22 10:38:09;;;;;;;;;;;28.90;56.30;;;;;;5063697;28;20309;-83
2023/05/22 10:40:34;;;;;;;;;;;28.80;56.20;;;;;;5049708;28;20296;-82
2023/05/22 10:43:01;;;;;;;;;;;28.80;56.40;;;;;;5050540;28;20155;-83
2023/05/22 10:45:27;;;;;;;;;;;28.70;56.50;;;;;;5053701;28;20015;-83
2023/05/22 10:48:06;;;;;;;;;;;28.70;56.80;;;;;;5070907;28;20014;-83
2023/05/22 10:50:33;;;;;;;;;;;28.60;56.80;;;;;;5071202;28;19912;-82
2023/05/22 10:53:22;;;;;;;;;;;28.60;56.90;;;;;;5104739;28;19908;-82
2023/05/22 10:55:48;;;;;;;;;;;28.60;57.10;;;;;;5071967;28;19919;-82
2023/05/22 10:58:17;;;;;;;;;;;28.60;57.30;;;;;;5073618;28;19908;-83
2023/05/22 11:00:43;;;;;;;;;;;28.50;57.40;;;;;;5091624;28;19908;-83
2023/05/22 11:03:10;;;;;;;;;;;28.50;57.40;;;;;;5070851;28;19913;-83
2023/05/22 11:05:36;;;;;;;;;;;28.50;57.40;;;;;;5072482;28;20068;-82
2023/05/22 11:08:09;;;;;;;;;;;28.50;57.60;;;;;;5085750;28;19909;-83
2023/05/22 11:10:54;;;;;;;;;;;28.50;57.70;;;;;;5055012;28;19927;-83
2023/05/22 11:13:20;;;;;;;;;;;28.50;57.80;;;;;;5080031;28;19941;-83
2023/05/22 11:15:47;;;;;;;;;;;28.40;57.90;;;;;;5067682;28;19916;-83
2023/05/22 11:18:15;;;;;;;;;;;28.40;57.90;;;;;;5067267;28;19944;-83
2023/05/22 11:20:41;;;;;;;;;;;28.40;58.00;;;;;;5068359;28;19913;-84
2023/05/22 11:23:06;;;;;;;;;;;28.40;58.30;;;;;;5069697;28;19919;-83
2023/05/22 11:25:33;;;;;;;;;;;28.40;58.30;;;;;;5086028;28;19912;-83
2023/05/22 11:28:01;;;;;;;;;;;28.40;58.40;;;;;;5088268;28;20014;-83
2023/05/22 11:30:27;;;;;;;;;;;28.40;58.60;;;;;;5088551;28;19926;-83
2023/05/22 11:32:53;;;;;;;;;;;28.40;58.60;;;;;;5088105;28;19924;-83
2023/05/22 11:35:19;;;;;;;;;;;28.30;58.80;;;;;;5088148;28;20040;-83
2023/05/22 11:37:45;;;;;;;;;;;28.30;59.00;;;;;;5085822;28;19912;-83
2023/05/22 11:40:15;;;;;;;;;;;28.20;59.00;;;;;;5068247;28;19919;-83
2023/05/22 11:42:41;;;;;;;;;;;28.20;59.20;;;;;;5086898;28;19962;-83
2023/05/22 11:45:07;;;;;;;;;;;28.10;59.30;;;;;;5087120;28;20084;-83
2023/05/22 11:47:33;;;;;;;;;;;28.10;59.40;;;;;;5067698;28;19912;-83
2023/05/22 11:49:58;;;;;;;;;;;28.10;59.60;;;;;;5086877;28;19926;-83
2023/05/22 11:52:24;;;;;;;;;;;28.10;59.70;;;;;;5070559;28;20179;-82
2023/05/22 11:54:50;;;;;;;;;;;28.00;59.80;;;;;;5067875;28;19912;-83
2023/05/22 11:57:16;;;;;;;;;;;28.00;59.90;;;;;;5068734;28;20178;-83
2023/05/22 11:59:45;;;;;;;;;;;28.00;60.10;;;;;;5068667;28;20175;-83
2023/05/22 12:02:12;;;;;;;;;;;28.00;60.70;;;;;;5067579;28;19938;-83
2023/05/22 12:04:37;;;;;;;;;;;27.90;60.70;;;;;;5066818;28;19916;-83
2023/05/22 12:07:03;;;;;;;;;;;27.90;60.70;;;;;;5067330;28;20175;-83
2023/05/22 12:09:29;;;;;;;;;;;27.90;60.70;;;;;;5082489;28;20113;-83
2023/05/22 12:11:55;;;;;;;;;;;27.90;62.00;;;;;;5066614;28;19908;-83
2023/05/22 12:14:27;;;;;;;;;;;27.90;61.40;;;;;;5066436;28;19908;-83
2023/05/22 12:16:53;;;;;;;;;;;27.90;61.50;;;;;;5065769;28;19908;-83
2023/05/22 12:19:21;;;;;;;;;;;27.80;61.50;;;;;;5067567;28;19912;-82
2023/05/22 12:21:50;;;;;;;;;;;27.90;62.00;;;;;;5093408;28;19916;-83
2023/05/22 12:24:20;;;;;;;;;;;27.80;62.40;;;;;;5070780;28;19908;-83
2023/05/22 12:26:49;;;;;;;;;;;27.80;62.50;;;;;;5067903;28;20300;-82
2023/05/22 12:29:15;;;;;;;;;;;27.80;62.50;;;;;;5067179;28;19973;-83
2023/05/22 12:31:42;;;;;;;;;;;27.80;62.50;;;;;;5086595;28;19920;-83
2023/05/22 12:34:08;;;;;;;;;;;27.80;63.10;;;;;;5068235;28;19920;-83
2023/05/22 12:36:36;;;;;;;;;;;27.80;63.10;;;;;;5084917;28;20174;-83
2023/05/22 12:39:05;;;;;;;;;;;27.70;63.40;;;;;;5062751;28;19916;-83
2023/05/22 12:41:31;;;;;;;;;;;27.80;63.50;;;;;;5081152;28;19942;-83
2023/05/22 12:43:56;;;;;;;;;;;27.80;63.80;;;;;;5085962;28;19916;-83
2023/05/22 12:46:22;;;;;;;;;;;27.80;63.80;;;;;;5066469;28;19941;-83
2023/05/22 12:48:48;;;;;;;;;;;27.80;64.00;;;;;;5073334;28;19917;-83
2023/05/22 12:51:14;;;;;;;;;;;27.80;64.20;;;;;;5089846;28;19951;-82
2023/05/22 12:53:39;;;;;;;;;;;27.80;64.30;;;;;;5091821;28;19919;-83
2023/05/22 12:56:06;;;;;;;;;;;27.80;64.30;;;;;;5074913;28;19912;-82
2023/05/22 12:58:31;;;;;;;;;;;27.70;64.20;;;;;;5074773;28;19912;-82
2023/05/22 13:00:57;;;;;;;;;;;27.70;64.30;;;;;;5069599;28;19913;-83
2023/05/22 13:03:23;;;;;;;;;;;27.70;64.50;;;;;;5065529;28;19913;-83
2023/05/22 13:05:49;;;;;;;;;;;27.70;64.80;;;;;;5085162;28;19913;-83
2023/05/22 13:08:14;;;;;;;;;;;27.70;65.00;;;;;;5064212;28;20359;-83
2023/05/22 13:10:40;;;;;;;;;;;27.70;65.00;;;;;;5063066;28;20096;-83
2023/05/22 13:13:05;;;;;;;;;;;27.70;65.10;;;;;;5072964;28;20018;-83
2023/05/22 13:15:31;;;;;;;;;;;27.70;65.10;;;;;;5062877;28;19917;-83
2023/05/22 13:17:57;;;;;;;;;;;27.70;65.30;;;;;;5063137;28;19980;-84
2023/05/22 13:20:22;;;;;;;;;;;27.70;65.20;;;;;;5067346;28;19977;-83
2023/05/22 13:22:48;;;;;;;;;;;27.60;65.50;;;;;;5085685;28;19912;-83
2023/05/22 13:25:17;;;;;;;;;;;27.70;65.90;;;;;;5064741;28;20027;-83
2023/05/22 13:27:43;;;;;;;;;;;27.70;65.90;;;;;;5066246;28;20022;-82
2023/05/22 13:30:09;;;;;;;;;;;27.60;65.80;;;;;;5064505;28;19923;-83
2023/05/22 13:32:35;;;;;;;;;;;27.70;66.10;;;;;;5084728;28;19912;-84
2023/05/22 13:35:03;;;;;;;;;;;27.60;66.20;;;;;;5064869;28;20089;-83
2023/05/22 13:37:29;;;;;;;;;;;27.70;66.40;;;;;;5065163;28;20226;-83
2023/05/22 13:39:55;;;;;;;;;;;27.70;66.10;;;;;;5082771;28;19912;-83
2023/05/22 13:42:22;;;;;;;;;;;27.70;66.30;;;;;;5065204;28;20108;-83
2023/05/22 13:44:47;;;;;;;;;;;27.70;66.50;;;;;;5063994;28;19954;-83
2023/05/22 13:47:13;;;;;;;;;;;27.70;66.80;;;;;;5080735;28;20256;-83
2023/05/22 13:49:38;;;;;;;;;;;27.70;66.80;;;;;;5065152;28;19955;-82
2023/05/22 13:52:04;;;;;;;;;;;27.70;66.90;;;;;;5069529;28;19921;-82
2023/05/22 13:54:30;;;;;;;;;;;27.70;66.90;;;;;;5073158;28;19912;-83
2023/05/22 13:56:56;;;;;;;;;;;27.70;67.10;;;;;;5071454;28;19908;-83
2023/05/22 13:59:23;;;;;;;;;;;27.70;67.20;;;;;;5081857;28;20201;-83
2023/05/22 14:01:48;;;;;;;;;;;27.70;67.10;;;;;;5083921;28;20011;-83
2023/05/22 14:04:14;;;;;;;;;;;27.80;67.40;;;;;;5067447;28;20014;-83
2023/05/22 14:06:39;;;;;;;;;;;27.70;67.40;;;;;;5072702;28;20263;-83
2023/05/22 14:09:08;;;;;;;;;;;27.70;67.30;;;;;;5074767;28;19912;-83
2023/05/22 14:11:34;;;;;;;;;;;27.70;67.40;;;;;;5090525;28;20022;-83
2023/05/22 14:14:03;;;;;;;;;;;27.70;67.80;;;;;;5071650;28;20235;-82